Time;durP1;ratioP1;P1;durP2;ratioP2;P2;SDS_P1;SDS_P2;PMS_P1;PMS_P2;Temp;Humidity;BMP_temperature;BMP_pressure;BME280_temperature;BME280_humidity;BME280_pressure;Samples;Min_cycle;Max_cycle;Signal;HPM_P1;HPM_P2
2020/12/23 00:00:53;;;;;;;66.25;20.00;;;8.20;99.90;;;;;;5048260;28;20088;-54
2020/12/23 00:03:19;;;;;;;63.75;21.25;;;8.20;99.90;;;;;;5050242;28;20029;-56
2020/12/23 00:05:45;;;;;;;73.40;21.98;;;8.20;99.90;;;;;;5049811;28;20682;-56
2020/12/23 00:08:11;;;;;;;77.68;22.25;;;8.10;99.90;;;;;;5048846;28;20033;-57
2020/12/23 00:10:36;;;;;;;62.42;21.13;;;8.10;99.90;;;;;;5049033;28;20036;-57
2020/12/23 00:13:02;;;;;;;69.60;21.23;;;8.10;99.90;;;;;;5049576;28;20032;-55
2020/12/23 00:15:28;;;;;;;62.00;20.48;;;8.10;99.90;;;;;;5048423;28;20041;-53
2020/12/23 00:17:54;;;;;;;72.03;22.42;;;8.10;99.90;;;;;;5049127;28;20029;-50
2020/12/23 00:20:20;;;;;;;61.30;20.48;;;8.10;99.90;;;;;;5048059;28;20049;-52
2020/12/23 00:22:45;;;;;;;72.38;20.33;;;8.10;99.90;;;;;;5047607;28;20025;-50
2020/12/23 00:25:11;;;;;;;67.47;21.35;;;8.10;99.90;;;;;;5048661;28;20067;-56
2020/12/23 00:27:37;;;;;;;66.75;20.10;;;8.00;99.90;;;;;;5048143;28;20393;-57
2020/12/23 00:30:03;;;;;;;58.13;18.38;;;8.00;99.90;;;;;;5048205;28;20044;-54
2020/12/23 00:32:29;;;;;;;51.83;19.33;;;8.10;99.90;;;;;;5048122;28;20511;-51
2020/12/23 00:34:55;;;;;;;78.75;20.23;;;8.00;99.90;;;;;;5048432;28;20033;-57
2020/12/23 00:37:22;;;;;;;62.88;21.90;;;8.10;99.90;;;;;;5048238;28;20028;-58
2020/12/23 00:39:48;;;;;;;70.15;22.77;;;8.00;99.90;;;;;;5048150;28;20036;-49
2020/12/23 00:42:13;;;;;;;94.40;23.67;;;8.10;99.90;;;;;;5048335;28;20032;-52
2020/12/23 00:44:39;;;;;;;98.05;22.75;;;8.10;99.90;;;;;;5047996;28;20033;-54
2020/12/23 00:47:05;;;;;;;103.25;24.55;;;8.10;99.90;;;;;;5047231;28;20094;-54
2020/12/23 00:49:30;;;;;;;97.10;24.50;;;8.00;99.90;;;;;;5048256;28;20113;-57
2020/12/23 00:51:56;;;;;;;93.28;24.75;;;8.10;99.90;;;;;;5048275;28;20029;-51
2020/12/23 00:54:22;;;;;;;68.43;21.48;;;8.10;99.90;;;;;;5047990;28;20120;-53
2020/12/23 00:56:48;;;;;;;77.03;22.63;;;8.10;99.90;;;;;;5047763;28;20067;-51
2020/12/23 00:59:13;;;;;;;64.93;22.23;;;8.10;99.90;;;;;;5048038;28;20040;-52
2020/12/23 01:01:40;;;;;;;54.85;21.48;;;8.10;99.90;;;;;;5046340;28;20108;-56
2020/12/23 01:04:05;;;;;;;54.90;19.52;;;8.10;99.90;;;;;;5045874;28;20068;-55
2020/12/23 01:06:31;;;;;;;60.10;20.65;;;8.10;99.90;;;;;;5046468;28;20450;-54
2020/12/23 01:08:57;;;;;;;68.55;22.95;;;8.10;99.90;;;;;;5045403;28;20111;-54
2020/12/23 01:11:23;;;;;;;67.05;21.70;;;8.10;99.90;;;;;;5046890;28;20114;-58
2020/12/23 01:13:48;;;;;;;53.45;20.35;;;8.10;99.90;;;;;;5047021;28;20330;-54
2020/12/23 01:16:21;;;;;;;69.32;24.00;;;8.10;99.90;;;;;;5046792;28;20453;-56
2020/12/23 01:18:47;;;;;;;72.38;24.27;;;8.10;99.90;;;;;;5047747;28;20427;-52
2020/12/23 01:21:13;;;;;;;73.38;24.67;;;8.10;99.90;;;;;;5024154;28;694029;-57
2020/12/23 01:23:40;;;;;;;58.28;21.33;;;8.20;99.90;;;;;;5048376;28;20629;-55
2020/12/23 01:26:06;;;;;;;65.80;22.95;;;8.10;99.90;;;;;;5048408;28;20029;-56
2020/12/23 01:28:32;;;;;;;77.53;22.08;;;8.10;99.90;;;;;;5048293;28;20397;-53
2020/12/23 01:30:57;;;;;;;57.90;21.80;;;8.10;99.90;;;;;;5048444;28;20060;-54
2020/12/23 01:33:23;;;;;;;56.67;19.83;;;8.10;99.90;;;;;;5048653;28;20029;-53
2020/12/23 01:35:49;;;;;;;62.10;20.73;;;8.10;99.90;;;;;;5048485;28;20401;-55
2020/12/23 01:38:14;;;;;;;58.10;19.45;;;8.10;99.90;;;;;;5048304;28;20040;-56
2020/12/23 01:40:40;;;;;;;56.20;18.42;;;8.00;99.90;;;;;;5048313;28;20116;-56
2020/12/23 01:43:08;;;;;;;68.50;19.08;;;8.00;99.90;;;;;;5048264;28;20108;-54
2020/12/23 01:45:34;;;;;;;74.38;19.55;;;8.00;99.90;;;;;;5048265;28;20048;-52
2020/12/23 01:48:00;;;;;;;64.60;19.67;;;8.00;99.90;;;;;;5048342;28;20108;-53
2020/12/23 01:50:25;;;;;;;67.65;20.65;;;8.00;99.90;;;;;;5048226;28;20049;-55
2020/12/23 01:52:53;;;;;;;64.60;20.77;;;8.00;99.90;;;;;;5048206;28;20088;-55
2020/12/23 01:55:18;;;;;;;64.70;20.15;;;8.00;99.90;;;;;;5048171;28;20036;-51
2020/12/23 01:57:44;;;;;;;58.22;21.30;;;8.00;99.90;;;;;;5048321;28;20633;-51
2020/12/23 02:00:10;;;;;;;54.97;19.38;;;8.00;99.90;;;;;;5048254;28;20040;-54
2020/12/23 02:02:37;;;;;;;58.25;18.23;;;8.00;99.90;;;;;;5048284;28;20400;-57
2020/12/23 02:05:08;;;;;;;56.90;21.17;;;8.00;99.90;;;;;;5048265;28;20461;-51
2020/12/23 02:07:34;;;;;;;59.05;18.92;;;8.00;99.90;;;;;;5048037;28;20086;-57
2020/12/23 02:10:05;;;;;;;53.30;19.08;;;8.00;99.90;;;;;;5047878;28;20043;-58
2020/12/23 02:12:30;;;;;;;71.43;22.70;;;8.00;99.90;;;;;;5048208;28;20043;-53
2020/12/23 02:15:06;;;;;;;67.63;23.15;;;8.00;99.90;;;;;;5048179;28;20542;-55
2020/12/23 02:17:32;;;;;;;76.78;24.05;;;8.00;99.90;;;;;;5047984;28;20025;-49
2020/12/23 02:19:58;;;;;;;60.97;22.05;;;8.00;99.90;;;;;;5049232;28;20072;-54
2020/12/23 02:22:28;;;;;;;87.57;25.55;;;8.00;99.90;;;;;;5051375;28;20521;-52
2020/12/23 02:24:55;;;;;;;68.93;23.58;;;8.00;99.90;;;;;;5051730;28;20029;-55
2020/12/23 02:27:22;;;;;;;71.05;23.33;;;8.00;99.90;;;;;;5051711;28;20036;-55
2020/12/23 02:29:50;;;;;;;90.20;25.92;;;8.00;99.90;;;;;;5051387;28;20036;-52
2020/12/23 02:32:17;;;;;;;67.72;22.45;;;8.00;99.90;;;;;;5051717;28;20033;-55
2020/12/23 02:34:43;;;;;;;91.85;23.40;;;8.00;99.90;;;;;;5051365;28;20047;-54
2020/12/23 02:37:09;;;;;;;60.63;22.25;;;8.00;99.90;;;;;;5051110;28;20044;-51
2020/12/23 02:39:37;;;;;;;68.18;22.05;;;8.00;99.90;;;;;;5051281;28;20029;-50
2020/12/23 02:42:06;;;;;;;78.85;22.75;;;8.00;99.90;;;;;;5168208;22;20068;-52
2020/12/23 02:44:32;;;;;;;72.95;21.90;;;8.00;99.90;;;;;;5071083;28;20043;-53
2020/12/23 02:47:01;;;;;;;66.43;21.15;;;8.00;99.90;;;;;;5071304;28;20479;-52
2020/12/23 02:49:27;;;;;;;70.00;21.48;;;8.00;99.90;;;;;;5070964;28;20487;-56
2020/12/23 02:51:53;;;;;;;69.28;21.65;;;8.00;99.90;;;;;;5053132;28;20587;-56
2020/12/23 02:54:20;;;;;;;77.15;20.33;;;8.10;99.90;;;;;;5071102;28;20035;-52
2020/12/23 02:56:49;;;;;;;70.78;19.60;;;8.00;99.90;;;;;;5069771;28;20517;-53
2020/12/23 02:59:15;;;;;;;62.33;18.92;;;8.00;99.90;;;;;;5071196;28;20132;-54
2020/12/23 03:01:40;;;;;;;83.57;21.50;;;8.00;99.90;;;;;;5070888;28;20502;-53
2020/12/23 03:04:07;;;;;;;74.22;22.23;;;8.00;99.90;;;;;;5070807;28;20376;-54
2020/12/23 03:06:34;;;;;;;64.50;21.27;;;8.00;99.90;;;;;;5070717;28;20063;-54
2020/12/23 03:09:01;;;;;;;51.35;20.98;;;8.10;99.90;;;;;;5070322;28;20031;-58
2020/12/23 03:11:27;;;;;;;62.55;21.48;;;8.00;99.90;;;;;;5070816;28;20039;-53
2020/12/23 03:13:52;;;;;;;62.13;18.00;;;8.10;99.90;;;;;;5070685;28;20032;-54
2020/12/23 03:16:18;;;;;;;66.22;23.55;;;8.10;99.90;;;;;;5070869;28;20036;-53
2020/12/23 03:18:44;;;;;;;106.38;26.30;;;8.10;99.90;;;;;;5070484;28;20028;-54
2020/12/23 03:21:10;;;;;;;76.55;25.27;;;8.10;99.90;;;;;;5070669;28;20032;-51
2020/12/23 03:23:36;;;;;;;115.70;29.42;;;8.10;99.90;;;;;;5070242;28;20468;-52
2020/12/23 03:26:03;;;;;;;78.90;27.65;;;8.10;99.90;;;;;;5070681;28;20384;-53
2020/12/23 03:28:30;;;;;;;101.85;29.33;;;8.10;99.90;;;;;;5070433;28;20041;-58
2020/12/23 03:30:55;;;;;;;108.10;30.77;;;8.10;99.90;;;;;;5069546;28;20052;-55
2020/12/23 03:33:21;;;;;;;116.25;33.35;;;8.00;99.90;;;;;;5069999;28;20066;-58
2020/12/23 03:35:47;;;;;;;95.63;30.40;;;8.00;99.90;;;;;;5070133;28;20059;-56
2020/12/23 03:38:13;;;;;;;83.65;28.67;;;8.10;99.90;;;;;;5069864;28;20425;-55
2020/12/23 03:40:39;;;;;;;103.90;32.50;;;8.10;99.90;;;;;;5069928;28;20028;-56
2020/12/23 03:43:05;;;;;;;92.63;31.02;;;8.00;99.90;;;;;;5069947;28;20094;-56
2020/12/23 03:45:30;;;;;;;91.78;31.13;;;8.00;99.90;;;;;;5070159;28;20052;-50
2020/12/23 03:47:59;;;;;;;104.53;31.58;;;8.00;99.90;;;;;;5069673;28;20498;-54
2020/12/23 03:50:25;;;;;;;99.25;30.50;;;8.10;99.90;;;;;;5069698;28;20036;-58
2020/12/23 03:52:51;;;;;;;93.20;29.77;;;8.00;99.90;;;;;;5069846;28;20031;-53
2020/12/23 03:55:17;;;;;;;92.90;28.75;;;8.00;99.90;;;;;;5069935;28;20470;-56
2020/12/23 03:57:42;;;;;;;82.93;28.55;;;8.00;99.90;;;;;;5069923;28;20021;-51
2020/12/23 04:00:11;;;;;;;89.88;28.70;;;8.10;99.90;;;;;;5069469;28;20101;-58
2020/12/23 04:02:36;;;;;;;80.32;29.08;;;8.10;99.90;;;;;;5069451;28;20047;-54
2020/12/23 04:05:03;;;;;;;78.18;25.67;;;8.10;99.90;;;;;;5069332;28;20473;-56
2020/12/23 04:07:29;;;;;;;115.22;28.42;;;8.10;99.90;;;;;;5069550;28;20128;-56
2020/12/23 04:09:55;;;;;;;95.45;28.13;;;8.10;99.90;;;;;;5069470;28;20522;-55
2020/12/23 04:12:21;;;;;;;81.30;27.83;;;8.10;99.90;;;;;;5069347;28;20060;-53
2020/12/23 04:14:46;;;;;;;85.32;26.85;;;8.10;99.90;;;;;;5069272;28;20071;-55
2020/12/23 04:17:12;;;;;;;92.63;26.77;;;8.10;99.90;;;;;;5069304;28;20032;-56
2020/12/23 04:19:38;;;;;;;70.25;25.38;;;8.10;99.90;;;;;;5069051;28;20064;-55
2020/12/23 04:22:04;;;;;;;78.28;27.38;;;8.10;99.90;;;;;;5068920;28;20401;-55
2020/12/23 04:24:30;;;;;;;86.15;26.15;;;8.10;99.90;;;;;;5069138;28;20203;-54
2020/12/23 04:26:56;;;;;;;85.10;27.95;;;8.10;99.90;;;;;;5068856;28;20032;-55
2020/12/23 04:29:22;;;;;;;84.45;28.02;;;8.10;99.90;;;;;;5068809;28;20048;-54
2020/12/23 04:31:48;;;;;;;75.05;26.08;;;8.10;99.90;;;;;;5068932;28;20032;-56
2020/12/23 04:34:13;;;;;;;78.85;28.33;;;8.10;99.90;;;;;;5068776;28;20032;-56
2020/12/23 04:36:40;;;;;;;82.90;28.05;;;8.10;99.90;;;;;;5068938;28;20032;-55
2020/12/23 04:39:06;;;;;;;86.50;29.00;;;8.00;99.90;;;;;;5068708;28;20123;-54
2020/12/23 04:41:34;;;;;;;87.28;28.67;;;8.00;99.90;;;;;;5068732;28;20462;-56
2020/12/23 04:44:00;;;;;;;81.88;28.73;;;8.00;99.90;;;;;;5068391;28;20143;-54
2020/12/23 04:46:30;;;;;;;107.15;30.00;;;8.00;99.90;;;;;;5068684;28;20036;-54
2020/12/23 04:48:57;;;;;;;87.95;28.73;;;8.00;99.90;;;;;;5068415;28;20032;-50
2020/12/23 04:51:32;;;;;;;98.72;29.27;;;8.00;99.90;;;;;;5068858;28;20093;-55
2020/12/23 04:53:59;;;;;;;97.93;29.55;;;8.00;99.90;;;;;;5068672;28;20048;-56
2020/12/23 04:56:30;;;;;;;92.57;29.08;;;7.90;99.90;;;;;;5068674;28;20043;-50
2020/12/23 04:58:58;;;;;;;83.95;28.90;;;7.90;99.90;;;;;;5068608;28;20036;-56
2020/12/23 05:01:24;;;;;;;94.05;27.67;;;7.90;99.90;;;;;;5068473;28;20510;-56
2020/12/23 05:03:54;;;;;;;109.38;29.85;;;7.90;99.90;;;;;;5068845;28;20044;-54
2020/12/23 05:06:20;;;;;;;94.72;29.65;;;7.90;99.90;;;;;;5068507;28;20031;-57
2020/12/23 05:08:47;;;;;;;102.72;28.50;;;7.90;99.90;;;;;;5068495;28;20071;-56
2020/12/23 05:11:14;;;;;;;79.28;26.90;;;7.90;99.90;;;;;;5068461;28;20388;-52
2020/12/23 05:13:41;;;;;;;74.15;24.35;;;8.00;99.90;;;;;;5068658;28;20043;-55
2020/12/23 05:16:09;;;;;;;83.57;25.33;;;7.90;99.90;;;;;;5068795;28;20056;-54
2020/12/23 05:18:40;;;;;;;87.85;23.65;;;7.90;99.90;;;;;;5050801;28;20032;-51
2020/12/23 05:21:17;;;;;;;83.10;23.27;;;7.90;99.90;;;;;;5068433;28;20028;-53
2020/12/23 05:23:47;;;;;;;78.07;23.95;;;7.90;99.90;;;;;;5068441;28;20529;-54
2020/12/23 05:26:14;;;;;;;85.97;26.38;;;7.90;99.90;;;;;;5068330;28;20032;-55
2020/12/23 05:28:44;;;;;;;72.15;24.30;;;7.90;99.90;;;;;;5068984;28;20493;-51
2020/12/23 05:31:12;;;;;;;78.25;24.23;;;7.90;99.90;;;;;;5068540;28;20028;-51
2020/12/23 05:33:40;;;;;;;98.90;28.05;;;7.90;99.90;;;;;;5068174;28;20036;-53
2020/12/23 05:36:11;;;;;;;111.43;29.10;;;8.00;99.90;;;;;;5068509;28;20033;-57
2020/12/23 05:38:37;;;;;;;91.47;27.10;;;7.90;99.90;;;;;;5068537;28;20033;-54
2020/12/23 05:41:06;;;;;;;79.63;25.35;;;7.90;99.90;;;;;;5067964;28;20055;-48
2020/12/23 05:43:32;;;;;;;91.57;25.75;;;7.90;99.90;;;;;;5068146;28;20067;-54
2020/12/23 05:46:00;;;;;;;94.88;25.08;;;7.90;99.90;;;;;;5068102;28;20035;-51
2020/12/23 05:48:27;;;;;;;80.50;24.90;;;8.00;99.90;;;;;;5068225;28;20028;-52
2020/12/23 05:50:53;;;;;;;94.28;23.60;;;8.00;99.90;;;;;;5067989;28;20044;-52
2020/12/23 05:53:19;;;;;;;74.90;23.55;;;7.90;99.90;;;;;;5068045;28;20036;-56
2020/12/23 05:55:51;;;;;;;93.25;24.73;;;8.00;99.90;;;;;;5071066;28;20040;-50
2020/12/23 05:58:26;;;;;;;76.85;24.30;;;7.90;99.90;;;;;;5072015;28;20035;-55
2020/12/23 06:00:54;;;;;;;81.13;24.48;;;7.90;99.90;;;;;;5071764;28;20032;-52
2020/12/23 06:03:38;;;;;;;84.55;28.30;;;7.90;99.90;;;;;;5071829;28;20033;-51
2020/12/23 06:06:04;;;;;;;82.90;26.35;;;7.90;99.90;;;;;;5071590;28;20098;-55
2020/12/23 06:08:35;;;;;;;113.80;29.33;;;7.90;99.90;;;;;;5071779;28;20036;-58
2020/12/23 06:11:36;;;;;;;107.95;30.35;;;7.90;99.90;;;;;;5071804;28;20148;-54
2020/12/23 06:14:29;;;;;;;81.15;25.52;;;7.80;99.90;;;;;;5071858;28;20383;-53
2020/12/23 06:16:58;;;;;;;94.20;25.48;;;7.80;99.90;;;;;;5070995;28;20035;-59
2020/12/23 06:19:37;;;;;;;81.18;25.90;;;7.80;99.90;;;;;;5071616;28;20040;-57
2020/12/23 06:22:07;;;;;;;92.85;28.25;;;7.90;99.90;;;;;;5071401;28;20028;-53
2020/12/23 06:24:34;;;;;;;93.50;28.48;;;7.90;99.90;;;;;;5071154;28;20032;-57
2020/12/23 06:27:03;;;;;;;95.95;29.67;;;7.90;99.90;;;;;;5071145;28;20060;-49
2020/12/23 06:29:35;;;;;;;87.07;30.48;;;7.80;99.90;;;;;;5071021;28;20036;-57
2020/12/23 06:32:01;;;;;;;91.45;29.25;;;7.80;99.90;;;;;;5069752;28;20040;-56
2020/12/23 06:34:32;;;;;;;97.53;28.73;;;7.80;99.90;;;;;;5071066;28;20379;-49
2020/12/23 06:36:58;;;;;;;89.82;26.27;;;7.80;99.90;;;;;;5071117;28;20094;-53
2020/12/23 06:39:31;;;;;;;91.13;26.65;;;7.80;99.90;;;;;;5071290;28;20112;-55
2020/12/23 06:42:00;;;;;;;91.65;25.05;;;7.90;99.90;;;;;;5070807;28;20029;-51
2020/12/23 06:44:41;;;;;;;77.22;23.45;;;7.90;99.90;;;;;;5071288;28;20320;-49
2020/12/23 06:47:07;;;;;;;87.00;25.42;;;7.80;99.90;;;;;;5071362;28;20033;-57
2020/12/23 06:49:39;;;;;;;78.28;25.05;;;7.80;99.90;;;;;;5070789;28;20047;-56
2020/12/23 06:52:26;;;;;;;84.00;26.65;;;7.80;99.90;;;;;;5071119;28;20063;-55
2020/12/23 06:55:02;;;;;;;71.13;24.13;;;7.80;99.90;;;;;;5057410;28;20032;-54
2020/12/23 06:57:36;;;;;;;72.43;24.55;;;7.90;99.90;;;;;;5071089;28;20446;-54
2020/12/23 07:00:23;;;;;;;82.68;26.45;;;7.90;99.90;;;;;;5070134;28;20028;-55
2020/12/23 07:03:02;;;;;;;89.13;22.85;;;7.80;99.90;;;;;;5070189;28;20086;-54
2020/12/23 07:05:28;;;;;;;72.53;23.17;;;7.90;99.90;;;;;;5067579;28;20064;-54
2020/12/23 07:07:58;;;;;;;85.63;23.05;;;7.80;99.90;;;;;;5068614;28;20074;-55
2020/12/23 07:10:27;;;;;;;81.93;24.98;;;7.80;99.90;;;;;;5064954;28;20067;-52
2020/12/23 07:13:20;;;;;;;87.60;25.10;;;7.90;99.90;;;;;;5064659;28;20025;-54
2020/12/23 07:15:55;;;;;;;83.32;23.02;;;7.90;99.90;;;;;;5049715;28;20057;-51
2020/12/23 07:18:28;;;;;;;58.60;20.92;;;7.90;99.90;;;;;;5050419;28;20025;-55
2020/12/23 07:21:05;;;;;;;87.00;26.55;;;7.90;99.90;;;;;;5050347;28;20555;-57
2020/12/23 07:23:33;;;;;;;92.65;27.02;;;7.90;99.90;;;;;;5050659;28;20041;-54
2020/12/23 07:26:07;;;;;;;85.93;23.52;;;7.90;99.90;;;;;;5050625;28;20124;-51
2020/12/23 07:28:41;;;;;;;81.63;24.17;;;7.90;99.90;;;;;;5050399;28;20115;-55
2020/12/23 07:31:08;;;;;;;80.50;22.63;;;7.80;99.90;;;;;;5050297;28;20147;-53
2020/12/23 07:33:37;;;;;;;81.07;27.23;;;7.90;99.90;;;;;;5050133;28;20551;-53
2020/12/23 07:36:03;;;;;;;88.53;25.40;;;7.90;99.90;;;;;;5050111;28;20037;-55
2020/12/23 07:38:34;;;;;;;113.50;27.25;;;7.90;99.90;;;;;;5050257;28;20064;-53
2020/12/23 07:41:00;;;;;;;87.53;26.60;;;7.90;99.90;;;;;;5050053;28;20033;-54
2020/12/23 07:43:27;;;;;;;100.47;27.77;;;7.90;99.90;;;;;;5049691;28;20057;-53
2020/12/23 07:45:54;;;;;;;97.35;29.02;;;7.90;99.90;;;;;;5049688;28;20039;-57
2020/12/23 07:48:21;;;;;;;84.03;27.27;;;7.90;99.90;;;;;;5049602;28;20071;-54
2020/12/23 07:50:55;;;;;;;99.80;26.02;;;7.90;99.90;;;;;;5049856;28;20021;-56
2020/12/23 07:53:26;;;;;;;84.97;23.90;;;7.90;99.90;;;;;;5049945;28;20140;-58
2020/12/23 07:56:01;;;;;;;74.03;26.20;;;7.90;99.90;;;;;;5049553;28;20086;-57
2020/12/23 07:58:28;;;;;;;100.63;28.70;;;7.90;99.90;;;;;;5049525;28;20029;-49
2020/12/23 08:00:54;;;;;;;104.05;28.48;;;7.90;99.90;;;;;;5053947;28;20063;-54
2020/12/23 08:03:31;;;;;;;95.13;27.63;;;7.90;99.90;;;;;;5069294;28;20032;-55
2020/12/23 08:06:16;;;;;;;99.88;29.45;;;7.90;99.90;;;;;;5068438;28;20036;-56
2020/12/23 08:08:42;;;;;;;96.53;28.42;;;7.90;99.90;;;;;;5069144;28;20028;-54
2020/12/23 08:11:13;;;;;;;103.22;28.38;;;7.90;99.90;;;;;;5069286;28;20510;-54
2020/12/23 08:13:39;;;;;;;98.20;28.48;;;8.00;99.90;;;;;;5069272;28;20487;-52
2020/12/23 08:16:11;;;;;;;104.10;30.98;;;8.00;99.90;;;;;;5069418;28;20030;-54
2020/12/23 08:18:38;;;;;;;83.10;27.75;;;7.90;99.90;;;;;;5069090;28;20024;-54
2020/12/23 08:21:08;;;;;;;106.45;28.73;;;7.90;99.90;;;;;;5069092;28;20438;-51
2020/12/23 08:23:34;;;;;;;109.80;28.90;;;7.90;99.90;;;;;;5069136;28;20032;-54
2020/12/23 08:26:00;;;;;;;102.07;28.23;;;7.90;99.90;;;;;;5069191;28;20100;-57
2020/12/23 08:28:27;;;;;;;95.70;27.85;;;8.00;99.90;;;;;;5068795;28;20044;-57
2020/12/23 08:30:54;;;;;;;88.20;26.52;;;8.00;99.90;;;;;;5068812;28;20408;-55
2020/12/23 08:33:22;;;;;;;88.55;27.33;;;8.10;99.90;;;;;;5068938;28;20459;-50
2020/12/23 08:35:57;;;;;;;79.53;25.80;;;8.10;99.90;;;;;;5069173;28;20025;-54
2020/12/23 08:38:26;;;;;;;78.10;25.08;;;8.10;99.90;;;;;;5069033;28;20062;-52
2020/12/23 08:40:56;;;;;;;81.85;27.02;;;8.20;99.90;;;;;;5068903;28;20198;-53
2020/12/23 08:43:22;;;;;;;81.75;27.92;;;8.20;99.90;;;;;;5068291;28;20041;-54
2020/12/23 08:45:49;;;;;;;77.78;25.77;;;8.20;99.90;;;;;;5068604;28;20042;-51
2020/12/23 08:48:23;;;;;;;91.80;27.65;;;8.20;99.90;;;;;;5068689;28;20029;-52
2020/12/23 08:51:00;;;;;;;68.15;26.92;;;8.30;99.90;;;;;;5068468;28;20508;-51
2020/12/23 08:53:33;;;;;;;88.93;28.50;;;8.30;99.90;;;;;;5068698;28;20152;-54
2020/12/23 08:56:24;;;;;;;84.97;29.90;;;8.30;99.90;;;;;;5063691;28;20029;-52
2020/12/23 08:58:51;;;;;;;80.05;27.95;;;8.40;99.90;;;;;;5055858;28;20040;-54
2020/12/23 09:01:25;;;;;;;72.35;27.95;;;8.40;99.90;;;;;;5055777;28;20051;-53
2020/12/23 09:04:00;;;;;;;79.70;30.63;;;8.40;99.90;;;;;;5053074;28;20040;-55
2020/12/23 09:06:26;;;;;;;81.05;29.40;;;8.30;99.90;;;;;;5054114;28;20124;-51
2020/12/23 09:08:51;;;;;;;83.03;30.88;;;8.40;99.90;;;;;;5068276;28;20037;-55
2020/12/23 09:11:17;;;;;;;82.13;31.02;;;8.40;99.90;;;;;;5065686;28;20032;-54
2020/12/23 09:13:43;;;;;;;75.05;29.00;;;8.40;99.90;;;;;;5047858;28;20341;-50
2020/12/23 09:16:16;;;;;;;80.75;30.35;;;8.40;99.90;;;;;;5058054;28;20709;-57
2020/12/23 09:18:51;;;;;;;83.75;30.85;;;8.40;99.90;;;;;;5068683;28;20086;-51
2020/12/23 09:21:19;;;;;;;69.97;29.02;;;8.40;99.90;;;;;;5069305;28;20040;-57
2020/12/23 09:23:45;;;;;;;78.28;31.65;;;8.40;99.90;;;;;;5068426;28;20062;-51
2020/12/23 09:26:16;;;;;;;83.93;32.38;;;8.50;99.90;;;;;;5063686;28;20472;-52
2020/12/23 09:28:42;;;;;;;72.45;30.98;;;8.60;99.90;;;;;;5064150;28;20045;-51
2020/12/23 09:31:08;;;;;;;83.22;31.63;;;8.60;99.90;;;;;;5063346;28;20025;-53
2020/12/23 09:33:41;;;;;;;81.90;30.10;;;8.70;99.90;;;;;;5055964;28;20033;-51
2020/12/23 09:36:08;;;;;;;73.22;28.90;;;8.70;99.90;;;;;;5063978;28;20106;-50
2020/12/23 09:38:34;;;;;;;74.00;28.92;;;8.70;99.90;;;;;;5052389;28;20129;-51
2020/12/23 09:41:01;;;;;;;78.43;27.27;;;8.70;99.90;;;;;;5061018;28;20033;-55
2020/12/23 09:43:29;;;;;;;78.85;29.27;;;8.80;99.90;;;;;;5062001;28;20064;-55
2020/12/23 09:45:57;;;;;;;75.88;27.40;;;8.80;99.90;;;;;;5062525;28;20036;-52
2020/12/23 09:48:24;;;;;;;85.85;29.60;;;8.80;99.90;;;;;;5052229;28;20433;-52
2020/12/23 09:50:52;;;;;;;86.40;28.65;;;8.80;99.90;;;;;;5070158;28;20043;-56
2020/12/23 09:53:19;;;;;;;85.15;29.73;;;8.80;99.90;;;;;;5072292;28;20396;-54
2020/12/23 09:55:55;;;;;;;72.57;28.25;;;8.80;99.90;;;;;;5065420;28;20417;-55
2020/12/23 09:58:21;;;;;;;68.65;25.48;;;8.70;99.90;;;;;;5060463;28;20032;-54
2020/12/23 10:00:49;;;;;;;81.13;28.60;;;8.80;99.90;;;;;;5070307;28;20041;-54
2020/12/23 10:03:15;;;;;;;68.82;27.83;;;8.70;99.90;;;;;;5052997;28;20128;-53
2020/12/23 10:05:41;;;;;;;76.60;29.63;;;8.70;99.90;;;;;;5056599;28;20037;-50
2020/12/23 10:08:07;;;;;;;77.45;29.15;;;8.70;99.90;;;;;;5059468;28;20040;-51
2020/12/23 10:10:34;;;;;;;70.63;26.92;;;8.60;99.90;;;;;;5065739;28;20466;-57
2020/12/23 10:12:59;;;;;;;75.93;28.17;;;8.60;99.90;;;;;;5062100;28;20116;-53
2020/12/23 10:15:25;;;;;;;88.78;28.02;;;8.70;99.90;;;;;;5070353;28;20028;-52
2020/12/23 10:17:52;;;;;;;74.63;27.92;;;8.70;99.90;;;;;;5071400;28;20034;-55
2020/12/23 10:20:18;;;;;;;70.45;26.17;;;8.80;99.90;;;;;;5059393;28;20044;-53
2020/12/23 10:22:43;;;;;;;82.72;29.90;;;8.80;99.90;;;;;;5060220;28;20021;-51
2020/12/23 10:25:10;;;;;;;78.00;29.23;;;8.80;99.90;;;;;;5062613;28;20024;-48
2020/12/23 10:27:39;;;;;;;74.97;28.73;;;8.70;99.90;;;;;;5066409;28;20329;-57
2020/12/23 10:30:08;;;;;;;72.25;29.35;;;8.70;99.90;;;;;;5069269;28;20040;-51
2020/12/23 10:32:35;;;;;;;82.05;29.45;;;8.70;99.90;;;;;;5064804;28;20039;-53
2020/12/23 10:35:01;;;;;;;85.53;30.27;;;8.70;99.90;;;;;;5064921;28;20040;-58
2020/12/23 10:37:27;;;;;;;82.38;29.67;;;8.70;99.90;;;;;;5063674;28;20102;-49
2020/12/23 10:39:53;;;;;;;71.05;29.25;;;8.70;99.90;;;;;;5053143;28;20037;-53
2020/12/23 10:42:19;;;;;;;86.25;29.92;;;8.70;99.90;;;;;;5064255;28;20283;-56
2020/12/23 10:44:45;;;;;;;85.53;29.70;;;8.70;99.90;;;;;;5057449;28;20502;-56
2020/12/23 10:47:11;;;;;;;91.18;31.33;;;8.70;99.90;;;;;;5065837;28;20020;-54
2020/12/23 10:49:37;;;;;;;84.80;32.03;;;8.70;99.90;;;;;;5053846;28;20526;-53
2020/12/23 10:52:03;;;;;;;77.45;31.15;;;8.70;99.90;;;;;;5068867;28;20056;-56
2020/12/23 10:54:29;;;;;;;91.85;31.77;;;8.60;99.90;;;;;;5060984;28;20063;-51
2020/12/23 10:56:56;;;;;;;89.47;33.20;;;8.70;99.90;;;;;;5050939;28;20040;-52
2020/12/23 10:59:23;;;;;;;77.97;30.80;;;8.70;99.90;;;;;;5054147;28;20131;-54
2020/12/23 11:01:55;;;;;;;72.78;29.52;;;8.70;99.90;;;;;;5065338;28;20025;-55
2020/12/23 11:04:24;;;;;;;84.85;30.88;;;8.70;99.90;;;;;;5061179;28;20431;-57
2020/12/23 11:06:51;;;;;;;69.65;28.88;;;8.70;99.90;;;;;;5059904;28;20433;-56
2020/12/23 11:09:18;;;;;;;78.43;30.75;;;8.80;99.90;;;;;;5066498;28;20097;-56
2020/12/23 11:11:54;;;;;;;83.45;30.42;;;8.80;99.90;;;;;;5066065;28;20396;-54
2020/12/23 11:14:20;;;;;;;74.47;28.92;;;8.80;99.90;;;;;;5071071;28;20040;-56
2020/12/23 11:16:50;;;;;;;74.65;30.23;;;8.90;99.90;;;;;;5071242;28;20029;-53
2020/12/23 11:19:16;;;;;;;83.35;30.70;;;9.00;99.90;;;;;;5070899;28;20048;-57
2020/12/23 11:21:42;;;;;;;72.45;29.10;;;9.00;99.90;;;;;;5070592;28;20391;-54
2020/12/23 11:24:08;;;;;;;70.63;29.45;;;9.00;99.90;;;;;;5070438;28;20112;-54
2020/12/23 11:26:33;;;;;;;83.90;30.38;;;9.00;99.90;;;;;;5070401;28;20556;-55
2020/12/23 11:29:00;;;;;;;73.20;26.70;;;9.10;99.90;;;;;;5070122;28;20467;-55
2020/12/23 11:31:25;;;;;;;76.95;28.17;;;9.10;99.90;;;;;;5070594;28;20059;-56
2020/12/23 11:33:51;;;;;;;72.75;27.73;;;9.10;99.90;;;;;;5070230;28;20123;-56
2020/12/23 11:36:17;;;;;;;75.60;27.65;;;9.10;99.90;;;;;;5070186;28;20089;-57
2020/12/23 11:38:43;;;;;;;76.05;28.10;;;9.00;99.90;;;;;;5070067;28;20033;-57
2020/12/23 11:41:09;;;;;;;78.97;31.08;;;9.10;99.90;;;;;;5069994;28;20076;-55
2020/12/23 11:43:35;;;;;;;65.18;27.70;;;9.00;99.90;;;;;;5069517;28;20421;-55
2020/12/23 11:46:03;;;;;;;73.97;27.98;;;9.10;99.90;;;;;;5070005;28;20024;-53
2020/12/23 11:48:28;;;;;;;72.78;28.77;;;9.10;99.90;;;;;;5061689;28;20121;-50
2020/12/23 11:50:54;;;;;;;76.78;29.05;;;;;;;;;;5049760;28;20058;-53
2020/12/23 11:53:20;;;;;;;71.65;26.80;;;9.10;99.90;;;;;;5052170;28;20485;-54
2020/12/23 11:55:48;;;;;;;74.38;29.45;;;9.00;99.90;;;;;;5049670;28;20047;-56
2020/12/23 11:58:14;;;;;;;71.93;29.85;;;;;;;;;;5049535;28;20052;-55
2020/12/23 12:00:40;;;;;;;74.50;30.23;;;;;;;;;;5049602;28;20025;-54
2020/12/23 12:03:06;;;;;;;70.38;27.45;;;;;;;;;;5049472;28;20551;-54
2020/12/23 12:05:32;;;;;;;66.88;28.17;;;9.10;99.90;;;;;;5049566;28;20488;-53
2020/12/23 12:08:03;;;;;;;75.40;29.02;;;;;;;;;;5049209;28;20441;-57
2020/12/23 12:10:28;;;;;;;73.47;28.67;;;9.10;99.90;;;;;;5056142;28;20535;-54
2020/12/23 12:12:54;;;;;;;80.15;31.52;;;9.10;99.90;;;;;;5058438;28;20039;-55
2020/12/23 12:15:20;;;;;;;76.78;30.58;;;9.10;99.90;;;;;;5062533;28;20021;-56
2020/12/23 12:17:46;;;;;;;79.22;31.05;;;9.00;99.90;;;;;;5048976;28;20519;-55
2020/12/23 12:20:12;;;;;;;77.28;29.77;;;9.00;99.90;;;;;;5053995;28;20484;-56
2020/12/23 12:22:37;;;;;;;74.25;29.88;;;9.00;99.90;;;;;;5061642;28;20114;-53
2020/12/23 12:25:03;;;;;;;85.82;31.67;;;9.00;99.90;;;;;;5065110;28;20078;-56
2020/12/23 12:27:29;;;;;;;83.60;32.05;;;9.00;99.90;;;;;;5053586;28;20043;-53
2020/12/23 12:29:55;;;;;;;89.88;31.55;;;8.90;99.90;;;;;;5058342;28;20045;-53
2020/12/23 12:32:21;;;;;;;79.90;30.40;;;;;;;;;;5055946;28;20035;-53
2020/12/23 12:34:47;;;;;;;81.25;31.52;;;;;;;;;;5051950;28;20465;-51
2020/12/23 12:37:13;;;;;;;81.00;31.55;;;;;;;;;;5057695;28;20192;-57
2020/12/23 12:39:39;;;;;;;85.80;30.48;;;8.90;99.90;;;;;;5061495;28;20032;-54
2020/12/23 12:42:04;;;;;;;84.03;31.63;;;9.00;99.90;;;;;;5063539;28;20418;-55